EFSI/SJY METAR and TAF weather

Enter ICAO airport designator
Station Type Date Time Source
EFSI METAR 2020/01/22 12:20 UTC NOAA

EFSI 221220Z AUTO 30010KT CAVOK 00/M04 Q1011


Station Type Date Time Source
EFSI Decoded METAR 2020/01/22 12:20 UTC NOAA

Seinajoki-Ilmajok, Finland (EFSI) 62-41-37N 022-49-55E
Jan 22, 2020 - 07:20 AM EST / 2020.01.22 1220 UTC
Wind: from the WNW (300 degrees) at 12 MPH (10 KT):0
Visibility: greater than 7 mile(s):0
Temperature: 32 F (0 C)
Windchill: 23 F (-5 C):1
Dew Point: 24 F (-4 C)
Relative Humidity: 74%
Pressure (altimeter): 29.85 in. Hg (1011 hPa)
ob: EFSI 221220Z AUTO 30010KT CAVOK 00/M04 Q1011
cycle: 12

Station Type Date Time Source
EFSI TAF 2012/03/06 09:42 UTC NOAA

TAF EFSI 060830Z 0609/0621 12003KT CAVOK

Example: see airport list